Time;durP1;ratioP1;P1;durP2;ratioP2;P2;SDS_P1;SDS_P2;PMS_P1;PMS_P2;Temp;Humidity;BMP_temperature;BMP_pressure;BME280_temperature;BME280_humidity;BME280_pressure;Samples;Min_cycle;Max_cycle;Signal;HPM_P1;HPM_P2
2020/12/16 00:02:04;;;;;;;20.30;14.30;;;10.70;99.90;;;;;;5013087;28;20419;-72
2020/12/16 00:04:30;;;;;;;16.30;14.60;;;10.60;99.90;;;;;;5015103;28;20189;-72
2020/12/16 00:06:56;;;;;;;20.67;17.17;;;10.60;99.90;;;;;;5013300;28;20652;-72
2020/12/16 00:09:21;;;;;;;18.27;16.23;;;10.10;99.90;;;;;;5006493;28;20190;-72
2020/12/16 00:11:47;;;;;;;19.23;15.40;;;10.10;99.90;;;;;;4995361;28;20652;-72
2020/12/16 00:14:13;;;;;;;17.37;14.67;;;10.10;99.90;;;;;;4993855;28;20485;-73
2020/12/16 00:16:38;;;;;;;17.03;14.33;;;10.10;99.90;;;;;;5002407;28;20182;-72
2020/12/16 00:19:04;;;;;;;19.03;14.93;;;10.00;99.90;;;;;;5014378;28;20211;-71
2020/12/16 00:21:30;;;;;;;18.00;15.67;;;10.00;99.90;;;;;;5015174;28;20179;-71
2020/12/16 00:23:55;;;;;;;18.13;15.93;;;10.10;99.90;;;;;;5014021;28;20242;-71
2020/12/16 00:26:21;;;;;;;17.37;14.93;;;10.10;99.90;;;;;;5014930;28;20267;-71
2020/12/16 00:28:47;;;;;;;17.40;15.10;;;10.10;99.90;;;;;;5014858;28;20224;-71
2020/12/16 00:31:13;;;;;;;15.87;13.13;;;10.10;99.90;;;;;;5014351;28;20330;-71
2020/12/16 00:33:39;;;;;;;16.10;14.37;;;10.10;99.90;;;;;;5015061;28;20758;-71
2020/12/16 00:36:05;;;;;;;16.07;14.20;;;10.10;99.90;;;;;;5014038;28;20411;-71
2020/12/16 00:38:31;;;;;;;14.83;13.00;;;10.10;99.90;;;;;;5014534;28;20243;-71
2020/12/16 00:40:57;;;;;;;15.20;13.70;;;10.10;99.90;;;;;;5014111;28;20403;-71
2020/12/16 00:43:22;;;;;;;14.57;13.07;;;10.10;99.90;;;;;;5014567;28;20223;-70
2020/12/16 00:45:48;;;;;;;13.20;11.53;;;10.00;99.90;;;;;;5014823;28;20184;-71
2020/12/16 00:48:14;;;;;;;15.70;13.93;;;10.10;99.90;;;;;;5013876;28;20215;-71
2020/12/16 00:50:39;;;;;;;21.27;16.83;;;10.00;99.90;;;;;;5014624;28;20177;-71
2020/12/16 00:53:05;;;;;;;20.87;17.67;;;10.00;99.90;;;;;;5013821;28;20207;-71
2020/12/16 00:55:31;;;;;;;22.30;18.67;;;10.00;99.90;;;;;;5013784;28;20238;-72
2020/12/16 00:57:58;;;;;;;18.27;16.37;;;9.90;99.90;;;;;;5009848;28;20256;-72
2020/12/16 01:00:24;;;;;;;18.70;16.70;;;9.90;99.90;;;;;;5014120;28;20186;-71
2020/12/16 01:02:50;;;;;;;19.30;17.20;;;9.90;99.90;;;;;;5014590;28;20417;-71
2020/12/16 01:05:18;;;;;;;21.93;17.37;;;9.90;99.90;;;;;;5012395;28;20710;-71
2020/12/16 01:07:43;;;;;;;22.33;18.37;;;9.90;99.90;;;;;;5014274;28;20422;-71
2020/12/16 01:10:11;;;;;;;21.60;16.63;;;9.90;99.90;;;;;;5013476;28;20414;-71
2020/12/16 01:12:41;;;;;;;22.40;17.33;;;10.00;99.90;;;;;;5013999;28;20184;-71
2020/12/16 01:15:12;;;;;;;18.33;16.30;;;10.00;99.90;;;;;;5013537;28;20396;-71
2020/12/16 01:17:39;;;;;;;18.97;16.40;;;10.10;99.90;;;;;;5013698;28;20465;-71
2020/12/16 01:20:06;;;;;;;20.13;16.40;;;10.10;99.90;;;;;;5013315;28;20407;-71
2020/12/16 01:22:31;;;;;;;20.50;15.90;;;10.10;99.90;;;;;;5013927;28;20419;-71
2020/12/16 01:24:57;;;;;;;17.60;15.70;;;10.10;99.90;;;;;;5013302;28;20519;-72
2020/12/16 01:27:23;;;;;;;19.13;15.30;;;10.10;99.90;;;;;;5013717;28;20196;-71
2020/12/16 01:29:48;;;;;;;17.80;15.70;;;10.20;99.90;;;;;;5006293;28;20431;-71
2020/12/16 01:32:15;;;;;;;16.83;14.77;;;10.20;99.90;;;;;;5012388;28;20666;-71
2020/12/16 01:34:40;;;;;;;16.73;15.03;;;10.30;99.90;;;;;;5013875;28;20172;-71
2020/12/16 01:37:07;;;;;;;17.93;15.70;;;10.30;99.90;;;;;;5012620;28;20407;-71
2020/12/16 01:39:32;;;;;;;17.60;14.67;;;10.30;99.90;;;;;;5013771;28;20167;-71
2020/12/16 01:41:58;;;;;;;18.03;14.70;;;10.40;99.90;;;;;;5012969;28;20970;-72
2020/12/16 01:44:28;;;;;;;17.50;14.93;;;10.40;99.90;;;;;;5013646;28;20201;-71
2020/12/16 01:47:00;;;;;;;19.23;15.83;;;10.40;99.90;;;;;;4993138;28;20272;-72
2020/12/16 01:49:26;;;;;;;19.50;15.30;;;10.40;99.90;;;;;;5013906;28;20751;-71
2020/12/16 01:52:03;;;;;;;19.23;16.20;;;10.40;99.90;;;;;;5012281;28;20407;-71
2020/12/16 01:54:32;;;;;;;17.27;14.83;;;10.50;99.90;;;;;;5013832;28;20535;-71
2020/12/16 01:57:00;;;;;;;17.60;15.40;;;10.50;99.90;;;;;;5012878;28;20875;-72
2020/12/16 01:59:27;;;;;;;17.90;14.87;;;10.50;99.90;;;;;;5013485;28;20411;-71
2020/12/16 02:01:54;;;;;;;18.33;14.80;;;10.50;99.90;;;;;;5000660;28;20862;-70
2020/12/16 02:04:24;;;;;;;20.17;15.43;;;10.50;99.90;;;;;;5011820;28;20996;-71
2020/12/16 02:06:57;;;;;;;21.03;15.10;;;10.50;99.90;;;;;;5013259;28;20763;-70
2020/12/16 02:09:23;;;;;;;16.33;13.97;;;10.50;99.90;;;;;;5012543;28;20407;-70
2020/12/16 02:11:50;;;;;;;16.20;13.73;;;10.50;99.90;;;;;;5012547;28;20413;-71
2020/12/16 02:14:16;;;;;;;16.90;13.70;;;10.50;99.90;;;;;;5011901;28;21175;-70
2020/12/16 02:16:43;;;;;;;15.70;13.30;;;10.50;99.90;;;;;;5012584;28;20436;-71
2020/12/16 02:19:10;;;;;;;14.90;13.30;;;10.40;99.90;;;;;;4998681;28;20506;-70
2020/12/16 02:21:36;;;;;;;15.57;13.87;;;10.40;99.90;;;;;;5012779;28;20789;-70
2020/12/16 02:24:08;;;;;;;16.43;13.87;;;10.40;99.90;;;;;;5012292;28;20754;-74
2020/12/16 02:26:36;;;;;;;17.27;14.23;;;10.40;99.90;;;;;;5013084;28;20814;-73
2020/12/16 02:29:03;;;;;;;18.83;15.17;;;10.50;99.90;;;;;;5012542;28;20433;-71
2020/12/16 02:31:31;;;;;;;18.30;15.23;;;10.40;99.90;;;;;;5012161;28;20458;-71
2020/12/16 02:33:57;;;;;;;18.20;14.67;;;10.40;99.90;;;;;;5012345;28;20438;-72
2020/12/16 02:36:23;;;;;;;15.90;13.30;;;10.40;99.90;;;;;;5011727;28;20922;-71
2020/12/16 02:38:51;;;;;;;16.20;14.40;;;10.40;99.90;;;;;;5012493;28;20450;-71
2020/12/16 02:41:18;;;;;;;19.10;15.00;;;10.40;99.90;;;;;;5011762;28;20171;-71
2020/12/16 02:43:44;;;;;;;16.87;14.73;;;10.30;99.90;;;;;;5012819;28;20974;-71
2020/12/16 02:46:10;;;;;;;17.90;14.80;;;10.30;99.90;;;;;;5011958;28;20570;-71
2020/12/16 02:48:35;;;;;;;18.90;15.83;;;10.40;99.90;;;;;;5011338;28;20541;-71
2020/12/16 02:51:02;;;;;;;17.73;14.77;;;10.40;99.90;;;;;;5011835;28;20499;-72
2020/12/16 02:53:28;;;;;;;17.13;14.17;;;10.40;99.90;;;;;;5011238;28;20186;-71
2020/12/16 02:55:53;;;;;;;18.47;15.07;;;10.40;99.90;;;;;;5012554;28;20421;-71
2020/12/16 02:58:19;;;;;;;16.70;13.67;;;10.40;99.90;;;;;;5011715;28;21096;-71
2020/12/16 03:00:45;;;;;;;13.80;12.00;;;10.40;99.90;;;;;;5012280;28;20178;-71
2020/12/16 03:03:11;;;;;;;13.60;12.30;;;10.40;99.90;;;;;;5011608;28;20207;-72
2020/12/16 03:05:36;;;;;;;16.03;14.00;;;10.40;99.90;;;;;;5011846;28;20172;-71
2020/12/16 03:08:06;;;;;;;16.97;14.27;;;10.40;99.90;;;;;;5011690;28;20188;-72
2020/12/16 03:10:31;;;;;;;16.63;13.03;;;10.30;99.90;;;;;;5012486;28;20527;-71
2020/12/16 03:12:57;;;;;;;14.73;12.40;;;10.30;99.90;;;;;;5012480;28;20505;-71
2020/12/16 03:15:23;;;;;;;16.33;13.30;;;10.30;99.90;;;;;;5010551;28;20183;-72
2020/12/16 03:17:49;;;;;;;15.17;13.00;;;10.20;99.90;;;;;;5012192;28;20212;-71
2020/12/16 03:20:14;;;;;;;16.13;13.20;;;10.20;99.60;;;;;;5011658;28;20299;-72
2020/12/16 03:22:40;;;;;;;16.67;13.60;;;10.10;99.40;;;;;;5012546;28;20670;-71
2020/12/16 03:25:06;;;;;;;15.23;13.63;;;10.20;99.60;;;;;;5011878;28;20298;-72
2020/12/16 03:27:31;;;;;;;14.77;13.10;;;10.10;99.10;;;;;;5014781;28;20186;-71
2020/12/16 03:29:57;;;;;;;15.43;13.47;;;10.10;98.70;;;;;;5016434;28;20305;-71
2020/12/16 03:32:23;;;;;;;17.63;14.40;;;10.00;99.00;;;;;;5014269;28;20652;-71
2020/12/16 03:34:48;;;;;;;16.03;13.60;;;10.00;99.50;;;;;;5016230;28;20542;-71
2020/12/16 03:37:14;;;;;;;15.00;13.47;;;10.00;99.60;;;;;;5015229;28;20170;-71
2020/12/16 03:39:40;;;;;;;16.37;14.57;;;10.00;99.50;;;;;;5016136;28;20182;-71
2020/12/16 03:42:06;;;;;;;18.33;15.90;;;9.90;99.90;;;;;;5015327;28;20183;-72
2020/12/16 03:44:31;;;;;;;45.23;15.60;;;9.90;99.90;;;;;;5016044;28;20183;-72
2020/12/16 03:46:57;;;;;;;16.03;14.33;;;9.90;99.90;;;;;;5016025;28;20250;-72
2020/12/16 03:49:23;;;;;;;19.40;15.00;;;9.90;99.90;;;;;;5015066;28;20263;-71
2020/12/16 03:51:53;;;;;;;25.50;15.47;;;9.90;99.90;;;;;;5016062;28;20182;-71
2020/12/16 03:54:18;;;;;;;42.17;17.07;;;9.90;99.90;;;;;;5015082;28;20179;-71
2020/12/16 03:56:44;;;;;;;41.93;16.57;;;9.90;99.90;;;;;;5016041;28;20457;-71
2020/12/16 03:59:10;;;;;;;37.63;14.93;;;9.90;99.90;;;;;;5014899;28;20215;-72
2020/12/16 04:01:36;;;;;;;31.53;16.80;;;9.80;99.90;;;;;;5015678;28;20191;-71
2020/12/16 04:04:04;;;;;;;19.27;14.93;;;9.80;99.90;;;;;;5015750;28;20171;-72
2020/12/16 04:06:30;;;;;;;16.70;14.47;;;9.80;99.90;;;;;;5015469;28;20171;-68
2020/12/16 04:08:55;;;;;;;18.33;14.80;;;9.80;99.90;;;;;;5015593;28;20422;-68
2020/12/16 04:11:21;;;;;;;17.80;15.10;;;9.80;99.90;;;;;;5014955;28;20323;-68
2020/12/16 04:13:47;;;;;;;14.97;13.37;;;9.80;99.90;;;;;;5015490;28;20203;-68
2020/12/16 04:16:23;;;;;;;15.97;13.53;;;9.70;99.90;;;;;;5014462;28;20179;-68
2020/12/16 04:18:49;;;;;;;15.60;13.63;;;9.70;99.90;;;;;;5015281;28;20454;-68
2020/12/16 04:21:16;;;;;;;18.23;13.40;;;9.60;99.90;;;;;;5013074;28;20410;-68
2020/12/16 04:23:42;;;;;;;17.47;13.07;;;9.60;99.90;;;;;;5015442;28;20414;-68
2020/12/16 04:26:07;;;;;;;23.87;12.23;;;9.60;99.90;;;;;;5014390;28;20437;-69
2020/12/16 04:28:34;;;;;;;17.07;12.80;;;9.50;99.90;;;;;;5015195;28;20472;-68
2020/12/16 04:31:01;;;;;;;21.53;12.20;;;9.50;99.90;;;;;;5013537;28;20812;-68
2020/12/16 04:33:26;;;;;;;12.90;11.63;;;9.50;99.90;;;;;;5014329;28;20508;-68
2020/12/16 04:35:52;;;;;;;17.73;12.53;;;9.40;99.90;;;;;;5015005;28;20920;-68
2020/12/16 04:38:18;;;;;;;17.27;14.37;;;9.40;99.90;;;;;;5013701;28;20213;-68
2020/12/16 04:40:44;;;;;;;16.00;13.10;;;9.30;99.90;;;;;;5014585;28;20406;-68
2020/12/16 04:43:21;;;;;;;19.30;13.13;;;9.20;99.90;;;;;;5014086;28;20175;-68
2020/12/16 04:45:48;;;;;;;21.27;17.23;;;9.10;99.90;;;;;;5014863;28;20516;-68
2020/12/16 04:48:15;;;;;;;27.23;14.23;;;9.10;99.90;;;;;;5013742;28;20426;-68
2020/12/16 04:50:43;;;;;;;14.10;11.67;;;9.10;99.90;;;;;;5014804;28;20442;-68
2020/12/16 04:53:17;;;;;;;15.03;13.47;;;9.10;99.90;;;;;;5014120;28;20496;-69
2020/12/16 04:55:43;;;;;;;14.07;11.60;;;9.10;99.90;;;;;;5014793;28;20481;-68
2020/12/16 04:58:09;;;;;;;15.50;13.10;;;9.10;99.90;;;;;;5013647;28;20496;-70
2020/12/16 05:00:36;;;;;;;12.90;11.57;;;9.10;99.90;;;;;;5013841;28;20175;-68
2020/12/16 05:03:09;;;;;;;15.87;14.47;;;9.00;99.90;;;;;;5014600;28;20492;-68
2020/12/16 05:05:35;;;;;;;28.13;13.73;;;9.00;99.90;;;;;;5014699;28;20453;-68
2020/12/16 05:08:12;;;;;;;18.27;13.83;;;9.00;99.90;;;;;;5014523;28;20838;-68
2020/12/16 05:10:41;;;;;;;15.83;12.80;;;9.00;99.90;;;;;;5014125;28;20436;-68
2020/12/16 05:13:16;;;;;;;21.90;17.50;;;9.00;99.90;;;;;;5012759;28;20897;-70
2020/12/16 05:15:44;;;;;;;30.50;15.20;;;9.00;99.90;;;;;;5014365;28;20417;-68
2020/12/16 05:18:22;;;;;;;33.27;16.07;;;8.90;99.90;;;;;;5013298;28;20464;-70
2020/12/16 05:20:50;;;;;;;17.50;13.23;;;8.80;99.90;;;;;;5014491;28;20413;-68
2020/12/16 05:23:17;;;;;;;26.93;14.10;;;8.80;99.90;;;;;;5013099;28;20525;-68
2020/12/16 05:26:03;;;;;;;19.10;15.10;;;8.60;99.90;;;;;;5013819;28;20448;-68
2020/12/16 05:28:32;;;;;;;20.60;13.77;;;8.50;99.90;;;;;;5010566;28;21053;-68
2020/12/16 05:31:01;;;;;;;25.27;13.93;;;8.60;99.90;;;;;;5014534;28;20478;-68
2020/12/16 05:33:27;;;;;;;17.87;13.17;;;8.70;99.90;;;;;;5013853;28;21239;-68
2020/12/16 05:35:54;;;;;;;18.03;11.40;;;8.70;99.90;;;;;;5012856;28;20460;-68
2020/12/16 05:38:20;;;;;;;35.90;23.10;;;8.80;99.90;;;;;;5012980;28;20203;-68
2020/12/16 05:40:46;;;;;;;18.63;13.63;;;8.70;99.90;;;;;;5013874;28;20497;-68
2020/12/16 05:43:28;;;;;;;19.17;11.83;;;8.70;99.90;;;;;;5013014;28;20406;-69
2020/12/16 05:45:54;;;;;;;18.00;12.33;;;8.50;99.90;;;;;;5010609;28;20448;-68
2020/12/16 05:48:19;;;;;;;15.07;12.17;;;8.50;99.90;;;;;;5013147;28;20997;-68
2020/12/16 05:50:53;;;;;;;15.80;11.50;;;8.40;99.90;;;;;;5013979;28;20484;-68
2020/12/16 05:53:27;;;;;;;20.40;11.80;;;8.50;99.90;;;;;;5013016;28;20255;-68
2020/12/16 05:55:59;;;;;;;20.47;12.97;;;8.60;99.90;;;;;;5013342;28;20913;-68
2020/12/16 05:58:28;;;;;;;16.03;11.60;;;8.60;99.90;;;;;;5012865;28;20878;-68
2020/12/16 06:01:02;;;;;;;14.87;12.10;;;8.60;99.90;;;;;;5009563;28;20417;-68
2020/12/16 06:03:41;;;;;;;14.60;12.03;;;8.60;99.90;;;;;;5013518;28;20756;-68
2020/12/16 06:06:11;;;;;;;15.40;13.30;;;8.50;99.90;;;;;;5008414;28;20937;-68
2020/12/16 06:08:41;;;;;;;13.70;12.30;;;8.50;99.90;;;;;;5013138;28;20425;-68
2020/12/16 06:11:09;;;;;;;14.97;11.20;;;8.50;99.90;;;;;;5013416;28;20452;-68
2020/12/16 06:13:35;;;;;;;16.00;14.10;;;8.50;99.90;;;;;;5012175;28;20418;-68
2020/12/16 06:16:06;;;;;;;15.00;11.70;;;8.60;99.90;;;;;;5012134;28;20425;-67
2020/12/16 06:18:33;;;;;;;15.77;13.10;;;8.60;99.90;;;;;;5012330;28;20453;-68
2020/12/16 06:21:01;;;;;;;18.57;11.97;;;8.60;99.90;;;;;;5012898;28;20926;-68
2020/12/16 06:23:29;;;;;;;16.53;12.70;;;8.50;99.90;;;;;;5012009;28;20417;-68
2020/12/16 06:25:57;;;;;;;14.10;11.50;;;8.40;99.90;;;;;;5012761;28;20419;-68
2020/12/16 06:28:23;;;;;;;17.17;11.90;;;8.30;99.90;;;;;;5012231;28;20491;-68
2020/12/16 06:31:05;;;;;;;15.17;12.40;;;8.30;99.90;;;;;;5012332;28;20591;-68
2020/12/16 06:33:54;;;;;;;16.57;13.40;;;8.40;99.90;;;;;;5012277;28;20900;-68
2020/12/16 06:36:24;;;;;;;15.87;11.50;;;8.40;99.90;;;;;;5012208;28;20822;-68
2020/12/16 06:38:50;;;;;;;13.20;11.80;;;8.40;99.90;;;;;;5013104;28;20449;-68
2020/12/16 06:41:22;;;;;;;12.20;10.90;;;8.40;99.90;;;;;;5012192;28;20413;-68
2020/12/16 06:43:53;;;;;;;14.70;11.70;;;8.50;99.90;;;;;;5012847;28;20198;-68
2020/12/16 06:46:34;;;;;;;13.50;10.57;;;8.40;99.90;;;;;;5012273;28;20389;-68
2020/12/16 06:49:05;;;;;;;12.70;11.00;;;8.40;99.90;;;;;;5012704;28;20420;-68
2020/12/16 06:51:41;;;;;;;15.77;10.97;;;8.40;99.90;;;;;;5010187;28;20767;-68
2020/12/16 06:54:10;;;;;;;13.30;11.90;;;8.40;99.90;;;;;;5012764;28;20406;-68
2020/12/16 06:56:36;;;;;;;12.73;11.40;;;8.30;99.90;;;;;;5012069;28;20472;-68
2020/12/16 06:59:03;;;;;;;12.73;10.13;;;8.40;99.90;;;;;;5012428;28;20523;-68
2020/12/16 07:01:28;;;;;;;11.93;10.27;;;8.40;99.90;;;;;;5011144;28;20417;-68
2020/12/16 07:03:54;;;;;;;11.90;10.50;;;8.40;99.90;;;;;;5012272;28;20873;-68
2020/12/16 07:06:29;;;;;;;12.57;10.13;;;8.40;99.90;;;;;;5011777;28;20182;-68
2020/12/16 07:09:20;;;;;;;14.27;12.17;;;8.40;99.90;;;;;;5012710;28;20569;-68
2020/12/16 07:11:53;;;;;;;14.10;12.80;;;8.30;99.90;;;;;;5011601;28;20394;-68
2020/12/16 07:14:39;;;;;;;12.40;11.10;;;8.40;99.90;;;;;;5011696;28;20444;-68
2020/12/16 07:17:10;;;;;;;12.60;11.00;;;8.40;99.90;;;;;;5012101;28;20429;-68
2020/12/16 07:19:36;;;;;;;14.20;12.80;;;8.40;99.90;;;;;;5012080;28;20420;-68
2020/12/16 07:22:16;;;;;;;12.23;10.93;;;8.40;99.90;;;;;;5012449;28;20511;-68
2020/12/16 07:24:49;;;;;;;13.30;11.90;;;8.40;99.90;;;;;;5012346;28;20436;-68
2020/12/16 07:27:19;;;;;;;13.93;12.50;;;8.50;99.90;;;;;;5011723;28;20417;-70
2020/12/16 07:29:54;;;;;;;14.97;13.43;;;8.50;99.90;;;;;;5012452;28;20507;-68
2020/12/16 07:32:22;;;;;;;18.30;13.50;;;8.50;99.90;;;;;;5010943;28;20517;-68
2020/12/16 07:34:49;;;;;;;15.77;13.40;;;8.60;99.90;;;;;;5012125;28;20424;-68
2020/12/16 07:37:18;;;;;;;17.10;15.30;;;8.60;99.90;;;;;;5011962;28;20429;-70
2020/12/16 07:39:56;;;;;;;21.40;19.07;;;8.60;99.90;;;;;;5012212;28;20410;-68
2020/12/16 07:42:32;;;;;;;26.77;20.60;;;8.60;99.90;;;;;;5011447;28;20406;-68
2020/12/16 07:45:07;;;;;;;23.93;21.13;;;8.70;99.90;;;;;;5012318;28;20417;-68
2020/12/16 07:47:33;;;;;;;27.20;22.10;;;8.70;99.90;;;;;;5011421;28;20400;-68
2020/12/16 07:49:59;;;;;;;29.70;21.97;;;8.70;99.90;;;;;;5012152;28;20410;-68
2020/12/16 07:52:27;;;;;;;25.90;20.37;;;8.70;99.90;;;;;;5011003;28;20451;-68
2020/12/16 07:54:53;;;;;;;24.67;19.00;;;8.70;99.90;;;;;;5011826;28;20186;-68
2020/12/16 07:57:28;;;;;;;18.50;16.50;;;8.70;99.90;;;;;;5011378;28;20409;-70
2020/12/16 07:59:54;;;;;;;18.90;14.67;;;8.80;99.90;;;;;;5012009;28;20883;-68
2020/12/16 08:02:20;;;;;;;18.47;13.40;;;8.80;99.90;;;;;;5010979;28;20426;-68
2020/12/16 08:04:57;;;;;;;14.73;12.07;;;8.80;99.90;;;;;;5012189;28;20183;-68
2020/12/16 08:07:23;;;;;;;20.47;14.70;;;8.80;99.90;;;;;;5011269;28;20496;-68
2020/12/16 08:10:09;;;;;;;13.90;12.40;;;8.90;99.90;;;;;;5011569;28;20501;-68
2020/12/16 08:12:40;;;;;;;17.17;13.70;;;8.90;99.90;;;;;;5013022;28;20178;-68
2020/12/16 08:15:08;;;;;;;19.23;16.60;;;8.90;99.90;;;;;;5015421;28;20413;-68
2020/12/16 08:17:38;;;;;;;18.97;14.23;;;9.00;99.90;;;;;;5013342;28;20462;-68
2020/12/16 08:20:16;;;;;;;18.80;16.67;;;9.00;99.90;;;;;;5015376;28;20469;-68
2020/12/16 08:22:44;;;;;;;21.60;16.17;;;9.00;99.90;;;;;;5014635;28;20493;-68
2020/12/16 08:25:12;;;;;;;22.20;18.03;;;9.00;99.90;;;;;;5015430;28;20416;-68
2020/12/16 08:27:39;;;;;;;20.73;16.07;;;9.00;99.90;;;;;;5014466;28;20406;-68
2020/12/16 08:30:06;;;;;;;20.90;14.90;;;9.00;99.90;;;;;;5014868;28;20489;-68
2020/12/16 08:32:42;;;;;;;17.67;13.90;;;9.00;99.90;;;;;;5012933;28;20523;-68
2020/12/16 08:35:16;;;;;;;21.20;15.40;;;9.00;99.90;;;;;;5015165;28;20402;-68
2020/12/16 08:37:55;;;;;;;17.37;15.47;;;8.90;99.90;;;;;;5014309;28;20453;-68
2020/12/16 08:40:21;;;;;;;16.10;14.40;;;9.00;99.90;;;;;;5014231;28;20909;-70
2020/12/16 08:42:48;;;;;;;16.17;13.50;;;8.90;99.90;;;;;;5015163;28;20420;-68
2020/12/16 08:45:14;;;;;;;15.43;13.80;;;8.80;99.90;;;;;;5014883;28;20410;-68
2020/12/16 08:47:39;;;;;;;18.07;13.97;;;8.80;99.90;;;;;;5013979;28;20635;-68
2020/12/16 08:50:12;;;;;;;19.70;14.90;;;8.90;99.90;;;;;;5014525;28;20960;-68
2020/12/16 08:52:43;;;;;;;19.43;13.90;;;9.00;99.90;;;;;;5014166;28;20222;-68
2020/12/16 08:55:14;;;;;;;14.73;13.23;;;9.30;99.90;;;;;;5014903;28;20490;-68
2020/12/16 08:57:54;;;;;;;16.07;13.33;;;10.00;99.90;;;;;;5012699;28;20473;-68
2020/12/16 09:00:26;;;;;;;15.60;12.80;;;10.90;99.90;;;;;;5014214;28;20430;-70
2020/12/16 09:03:09;;;;;;;14.67;13.13;;;12.00;97.20;;;;;;5014905;28;20395;-68
2020/12/16 09:05:40;;;;;;;13.77;12.50;;;13.40;95.00;;;;;;5013840;28;20484;-68
2020/12/16 09:08:08;;;;;;;14.27;12.90;;;14.60;91.70;;;;;;5014623;28;20457;-68
2020/12/16 09:10:35;;;;;;;13.83;12.53;;;15.70;89.20;;;;;;5013423;28;20421;-69
2020/12/16 09:13:20;;;;;;;13.97;12.50;;;16.60;85.30;;;;;;5014449;28;20414;-68
2020/12/16 09:15:50;;;;;;;15.60;14.00;;;17.50;81.50;;;;;;5012720;28;20397;-69
2020/12/16 09:18:16;;;;;;;15.17;13.57;;;18.40;77.00;;;;;;5014425;28;20450;-68
2020/12/16 09:20:46;;;;;;;15.50;14.00;;;19.10;73.40;;;;;;5013571;28;20414;-69
2020/12/16 09:23:12;;;;;;;14.40;13.00;;;19.80;70.70;;;;;;5012940;28;20410;-69
2020/12/16 09:25:37;;;;;;;15.73;14.13;;;20.50;68.80;;;;;;5012566;28;20506;-69
2020/12/16 09:28:03;;;;;;;15.77;14.33;;;20.90;65.10;;;;;;5014030;28;20186;-68
2020/12/16 09:30:34;;;;;;;18.77;15.80;;;21.00;64.00;;;;;;5012462;28;20721;-69
2020/12/16 09:33:16;;;;;;;17.40;15.70;;;21.10;65.10;;;;;;5014247;28;20571;-69
2020/12/16 09:35:43;;;;;;;17.27;15.23;;;21.70;62.80;;;;;;5013428;28;21056;-69
2020/12/16 09:38:19;;;;;;;15.93;14.33;;;22.30;61.90;;;;;;5013802;28;20445;-68
2020/12/16 09:40:46;;;;;;;15.30;13.60;;;22.70;59.40;;;;;;5012925;28;20417;-69
2020/12/16 09:43:12;;;;;;;18.10;16.30;;;22.60;59.30;;;;;;5012518;28;20406;-68
2020/12/16 09:45:39;;;;;;;19.40;17.57;;;22.20;59.60;;;;;;5012771;28;20425;-69
2020/12/16 09:48:06;;;;;;;20.20;16.40;;;22.30;60.20;;;;;;5013570;28;20554;-69
2020/12/16 09:50:36;;;;;;;17.67;15.00;;;22.40;59.70;;;;;;5011986;28;20414;-69
2020/12/16 09:53:06;;;;;;;17.20;15.57;;;22.60;59.70;;;;;;5013820;28;20429;-68
2020/12/16 09:55:42;;;;;;;16.00;14.60;;;23.10;59.10;;;;;;5012793;28;20418;-69
2020/12/16 09:58:12;;;;;;;16.33;13.70;;;23.60;58.60;;;;;;5013285;28;21014;-69
2020/12/16 10:00:40;;;;;;;14.90;13.57;;;24.30;57.00;;;;;;5012743;28;20394;-69
2020/12/16 10:03:08;;;;;;;15.33;14.03;;;25.00;56.30;;;;;;5013623;28;20406;-69
2020/12/16 10:05:35;;;;;;;18.47;16.90;;;25.50;55.50;;;;;;5012591;28;20464;-69
2020/12/16 10:08:01;;;;;;;19.50;17.10;;;25.50;54.90;;;;;;5013230;28;20807;-69
2020/12/16 10:10:29;;;;;;;13.60;12.37;;;25.60;55.10;;;;;;5012808;28;20437;-71
2020/12/16 10:12:55;;;;;;;15.57;14.30;;;25.90;54.50;;;;;;5013451;28;20472;-69
2020/12/16 10:15:21;;;;;;;14.13;13.00;;;26.50;54.30;;;;;;5012615;28;20413;-69
2020/12/16 10:17:47;;;;;;;11.80;10.90;;;27.20;53.70;;;;;;5012469;28;20650;-69
2020/12/16 10:20:13;;;;;;;11.93;11.00;;;27.60;51.20;;;;;;5012148;28;20176;-69
2020/12/16 10:22:41;;;;;;;12.03;11.23;;;28.00;50.90;;;;;;5012180;28;20711;-69
2020/12/16 10:25:07;;;;;;;13.50;12.40;;;28.20;50.70;;;;;;5012942;28;20183;-69
2020/12/16 10:27:32;;;;;;;11.83;10.93;;;28.20;50.40;;;;;;5012345;28;20410;-69
2020/12/16 10:29:59;;;;;;;11.90;10.93;;;28.40;50.50;;;;;;5012763;28;20511;-69
2020/12/16 10:32:26;;;;;;;11.97;11.07;;;28.60;49.60;;;;;;5012598;28;20191;-71
2020/12/16 10:34:53;;;;;;;10.83;10.03;;;28.50;50.20;;;;;;5012169;28;20414;-69
2020/12/16 10:37:23;;;;;;;11.27;10.50;;;28.50;49.50;;;;;;5013031;28;20413;-69
2020/12/16 10:39:49;;;;;;;12.10;11.20;;;28.30;49.70;;;;;;5012269;28;20405;-69
2020/12/16 10:42:15;;;;;;;11.53;10.83;;;28.20;50.50;;;;;;5012841;28;20406;-69
2020/12/16 10:44:41;;;;;;;11.10;9.43;;;27.40;51.50;;;;;;5011888;28;20464;-69
2020/12/16 10:47:07;;;;;;;10.93;10.07;;;27.40;52.20;;;;;;5012406;28;20426;-69
2020/12/16 10:49:34;;;;;;;7.37;6.87;;;27.10;51.90;;;;;;5011645;28;20207;-69
2020/12/16 10:52:11;;;;;;;9.33;8.63;;;27.00;52.30;;;;;;5012499;28;20771;-69
2020/12/16 10:54:38;;;;;;;9.10;8.40;;;26.70;52.60;;;;;;5011907;28;20422;-69
2020/12/16 10:57:04;;;;;;;8.80;8.10;;;26.40;53.00;;;;;;5012781;28;20488;-69
2020/12/16 10:59:30;;;;;;;8.77;8.17;;;26.00;53.60;;;;;;5010415;28;20422;-69
2020/12/16 11:01:58;;;;;;;9.70;9.10;;;25.80;54.50;;;;;;5012311;28;20476;-69
2020/12/16 11:04:24;;;;;;;7.30;6.80;;;25.50;55.60;;;;;;5012634;28;20229;-69
2020/12/16 11:06:51;;;;;;;8.33;7.63;;;25.40;55.50;;;;;;5012227;28;20402;-69
2020/12/16 11:09:19;;;;;;;4.80;4.60;;;25.20;56.10;;;;;;5011435;28;20453;-69
2020/12/16 11:11:46;;;;;;;4.87;4.60;;;24.30;56.90;;;;;;5011920;28;20406;-69
2020/12/16 11:14:12;;;;;;;5.00;4.80;;;23.90;58.00;;;;;;5012298;28;20418;-69
2020/12/16 11:16:40;;;;;;;3.90;3.70;;;23.50;58.50;;;;;;5011734;28;20468;-69
2020/12/16 11:19:07;;;;;;;6.20;5.90;;;23.30;60.00;;;;;;5011547;28;20414;-69
2020/12/16 11:21:40;;;;;;;4.80;4.60;;;23.30;59.10;;;;;;5010756;28;20423;-69
2020/12/16 11:24:07;;;;;;;5.20;5.00;;;23.40;59.90;;;;;;5012351;28;20426;-69
2020/12/16 11:26:40;;;;;;;4.67;4.47;;;23.50;59.80;;;;;;5012162;28;20501;-69
2020/12/16 11:29:07;;;;;;;4.57;4.37;;;23.00;60.40;;;;;;5012597;28;20477;-69
2020/12/16 11:31:41;;;;;;;5.27;5.07;;;22.80;61.30;;;;;;5012049;28;20520;-70
2020/12/16 11:34:08;;;;;;;5.80;5.50;;;22.90;61.80;;;;;;5012904;28;20441;-69
2020/12/16 11:36:42;;;;;;;5.03;4.83;;;22.90;63.20;;;;;;5012098;28;20438;-70
2020/12/16 11:39:09;;;;;;;5.10;4.73;;;23.00;62.10;;;;;;5012175;28;20418;-69
2020/12/16 11:41:36;;;;;;;5.30;5.10;;;22.90;62.20;;;;;;5011483;28;20413;-69
2020/12/16 11:44:03;;;;;;;5.70;5.40;;;22.90;62.30;;;;;;5012671;28;20402;-69
2020/12/16 11:46:30;;;;;;;5.13;4.73;;;22.90;62.70;;;;;;5012569;28;20398;-70
2020/12/16 11:49:00;;;;;;;5.33;5.03;;;22.80;62.20;;;;;;4998529;28;20811;-69
2020/12/16 11:51:27;;;;;;;4.47;4.27;;;22.60;63.20;;;;;;5015911;28;21020;-69
2020/12/16 11:53:54;;;;;;;4.80;4.60;;;22.60;64.00;;;;;;5015322;28;20421;-69
2020/12/16 11:56:20;;;;;;;5.53;5.23;;;22.40;63.80;;;;;;5016070;28;20421;-69
2020/12/16 11:58:46;;;;;;;4.57;4.37;;;22.20;64.90;;;;;;5014837;28;20901;-69
2020/12/16 12:01:13;;;;;;;4.83;4.53;;;22.20;65.00;;;;;;5015684;28;20414;-69
2020/12/16 12:03:39;;;;;;;5.40;5.10;;;22.00;65.50;;;;;;5015080;28;20425;-69
2020/12/16 12:06:12;;;;;;;5.40;5.20;;;21.70;65.80;;;;;;5015476;28;20441;-69
2020/12/16 12:08:39;;;;;;;5.80;5.60;;;21.50;66.60;;;;;;5013917;28;20450;-69
2020/12/16 12:11:05;;;;;;;5.00;4.80;;;21.00;67.00;;;;;;5014576;28;20405;-69
2020/12/16 12:13:31;;;;;;;3.83;3.73;;;20.70;68.00;;;;;;5013974;28;20483;-70
2020/12/16 12:15:57;;;;;;;4.17;4.00;;;19.70;70.90;;;;;;5013864;28;20405;-70
2020/12/16 12:18:23;;;;;;;5.00;4.80;;;18.50;74.90;;;;;;5015687;28;20410;-69
2020/12/16 12:20:49;;;;;;;5.30;5.10;;;17.80;78.60;;;;;;5014730;28;20896;-69
2020/12/16 12:23:14;;;;;;;4.07;3.97;;;16.90;81.20;;;;;;5014967;28;20273;-69
2020/12/16 12:25:40;;;;;;;4.43;4.17;;;16.70;84.50;;;;;;5014802;28;20190;-69
2020/12/16 12:28:06;;;;;;;4.30;4.10;;;16.70;85.00;;;;;;5015125;28;20210;-69
2020/12/16 12:30:32;;;;;;;3.80;3.70;;;16.10;85.80;;;;;;5014095;28;20233;-70
2020/12/16 12:32:57;;;;;;;4.27;4.07;;;15.70;90.00;;;;;;5012480;28;20328;-69
2020/12/16 12:35:23;;;;;;;4.40;4.20;;;15.70;90.70;;;;;;5014167;28;20468;-69
2020/12/16 12:37:49;;;;;;;4.30;4.10;;;15.60;91.00;;;;;;5013343;28;20264;-69
2020/12/16 12:40:15;;;;;;;4.40;4.20;;;15.60;92.20;;;;;;5014269;28;20564;-69